sensor_id;sensor_type;location;lat;lon;timestamp;temperature;humidity
57386;DHT22;71829;56.976;21.958;2023-08-06T14:21:31;27.60;99.90
57386;DHT22;71829;56.976;21.958;2023-08-06T14:23:58;27.70;99.90
57386;DHT22;71829;56.976;21.958;2023-08-06T14:26:25;27.70;99.90
57386;DHT22;71829;56.976;21.958;2023-08-06T14:28:52;27.60;99.90
57386;DHT22;71829;56.976;21.958;2023-08-06T14:31:21;27.70;99.90
57386;DHT22;71829;56.976;21.958;2023-08-06T14:33:48;27.80;99.90
57386;DHT22;71829;56.976;21.958;2023-08-06T14:36:15;27.80;99.90
57386;DHT22;71829;56.976;21.958;2023-08-06T14:38:43;27.80;99.90
57386;DHT22;71829;56.976;21.958;2023-08-06T14:41:25;27.80;99.90
57386;DHT22;71829;56.976;21.958;2023-08-06T14:43:52;27.80;99.90
57386;DHT22;71829;56.976;21.958;2023-08-06T14:46:20;27.80;99.90
57386;DHT22;71829;56.976;21.958;2023-08-06T14:48:47;27.80;99.90
57386;DHT22;71829;56.976;21.958;2023-08-06T14:51:14;27.90;99.90
57386;DHT22;71829;56.976;21.958;2023-08-06T14:53:41;27.90;99.90
57386;DHT22;71829;56.976;21.958;2023-08-06T14:56:08;28.00;99.90
57386;DHT22;71829;56.976;21.958;2023-08-06T14:58:35;28.00;99.90
57386;DHT22;71829;56.976;21.958;2023-08-06T15:01:03;28.10;99.90
57386;DHT22;71829;56.976;21.958;2023-08-06T15:03:30;28.10;99.90
57386;DHT22;71829;56.976;21.958;2023-08-06T15:05:58;28.00;99.90
57386;DHT22;71829;56.976;21.958;2023-08-06T15:08:25;28.00;99.90
57386;DHT22;71829;56.976;21.958;2023-08-06T15:10:53;28.00;99.90
57386;DHT22;71829;56.976;21.958;2023-08-06T15:13:21;28.00;99.90
57386;DHT22;71829;56.976;21.958;2023-08-06T15:15:49;28.10;99.90
57386;DHT22;71829;56.976;21.958;2023-08-06T15:18:16;28.10;99.90
57386;DHT22;71829;56.976;21.958;2023-08-06T15:20:44;28.10;99.90
57386;DHT22;71829;56.976;21.958;2023-08-06T15:23:11;28.10;99.90
57386;DHT22;71829;56.976;21.958;2023-08-06T15:25:38;28.10;99.90
57386;DHT22;71829;56.976;21.958;2023-08-06T15:28:05;28.20;99.90
57386;DHT22;71829;56.976;21.958;2023-08-06T15:30:33;28.30;99.90
57386;DHT22;71829;56.976;21.958;2023-08-06T15:33:01;28.30;99.90
57386;DHT22;71829;56.976;21.958;2023-08-06T16:37:41;27.80;99.90
57386;DHT22;71829;56.976;21.958;2023-08-06T16:40:08;27.80;99.90
57386;DHT22;71829;56.976;21.958;2023-08-06T16:42:36;27.80;99.90
57386;DHT22;71829;56.976;21.958;2023-08-06T16:45:03;27.80;99.90
57386;DHT22;71829;56.976;21.958;2023-08-06T16:47:31;27.80;99.90
57386;DHT22;71829;56.976;21.958;2023-08-06T16:49:58;27.70;99.90
57386;DHT22;71829;56.976;21.958;2023-08-06T16:52:27;27.70;99.90
57386;DHT22;71829;56.976;21.958;2023-08-06T16:54:55;27.70;99.90
57386;DHT22;71829;56.976;21.958;2023-08-06T16:57:22;27.70;99.90
57386;DHT22;71829;56.976;21.958;2023-08-06T16:59:49;27.70;99.90
57386;DHT22;71829;56.976;21.958;2023-08-06T17:02:17;27.60;99.90
57386;DHT22;71829;56.976;21.958;2023-08-06T17:04:45;27.60;99.90
57386;DHT22;71829;56.976;21.958;2023-08-06T17:07:12;27.60;99.90
57386;DHT22;71829;56.976;21.958;2023-08-06T17:09:39;27.60;99.90
57386;DHT22;71829;56.976;21.958;2023-08-06T17:12:07;27.60;99.90
57386;DHT22;71829;56.976;21.958;2023-08-06T17:14:36;27.60;99.90
57386;DHT22;71829;56.976;21.958;2023-08-06T17:17:03;27.50;99.90
57386;DHT22;71829;56.976;21.958;2023-08-06T17:19:33;27.50;99.90
57386;DHT22;71829;56.976;21.958;2023-08-06T17:22:00;27.50;99.90
57386;DHT22;71829;56.976;21.958;2023-08-06T17:24:27;27.40;99.90
57386;DHT22;71829;56.976;21.958;2023-08-06T17:26:55;27.30;99.90
57386;DHT22;71829;56.976;21.958;2023-08-06T17:29:26;27.30;99.90
57386;DHT22;71829;56.976;21.958;2023-08-06T17:31:54;27.30;99.90
57386;DHT22;71829;56.976;21.958;2023-08-06T17:34:21;27.30;99.90
57386;DHT22;71829;56.976;21.958;2023-08-06T17:36:49;27.20;99.90
57386;DHT22;71829;56.976;21.958;2023-08-06T17:39:16;27.20;99.90
57386;DHT22;71829;56.976;21.958;2023-08-06T17:41:43;27.20;99.90
57386;DHT22;71829;56.976;21.958;2023-08-06T17:44:13;27.10;99.90
57386;DHT22;71829;56.976;21.958;2023-08-06T17:46:40;27.00;99.90
57386;DHT22;71829;56.976;21.958;2023-08-06T17:49:08;27.00;99.90
